sensor_id;sensor_type;location;lat;lon;timestamp;pressure;altitude;pressure_sealevel;temperature;humidity
24486;BME280;13449;49.374;8.584;2023-02-18T00:01:51;101404.84;;;11.93;96.70
24486;BME280;13449;49.374;8.584;2023-02-18T00:04:18;101408.78;;;11.90;96.86
24486;BME280;13449;49.374;8.584;2023-02-18T00:06:45;101395.63;;;11.94;97.06
24486;BME280;13449;49.374;8.584;2023-02-18T00:09:14;101407.56;;;11.93;97.15
24486;BME280;13449;49.374;8.584;2023-02-18T00:11:46;101398.19;;;11.95;97.07
24486;BME280;13449;49.374;8.584;2023-02-18T00:14:18;101394.25;;;11.98;96.85
24486;BME280;13449;49.374;8.584;2023-02-18T00:16:45;101396.97;;;11.98;96.87
24486;BME280;13449;49.374;8.584;2023-02-18T00:19:25;101401.78;;;11.96;96.59
24486;BME280;13449;49.374;8.584;2023-02-18T00:21:54;101408.44;;;11.93;97.07
24486;BME280;13449;49.374;8.584;2023-02-18T00:24:39;101396.47;;;11.94;96.96
24486;BME280;13449;49.374;8.584;2023-02-18T00:27:06;101401.94;;;11.94;97.00
24486;BME280;13449;49.374;8.584;2023-02-18T00:29:33;101407.41;;;11.94;97.25
24486;BME280;13449;49.374;8.584;2023-02-18T00:31:59;101403.81;;;11.94;96.75
24486;BME280;13449;49.374;8.584;2023-02-18T00:34:33;101405.69;;;11.93;96.86
24486;BME280;13449;49.374;8.584;2023-02-18T00:36:59;101394.94;;;11.92;97.25
24486;BME280;13449;49.374;8.584;2023-02-18T00:39:26;101392.22;;;11.92;97.06
24486;BME280;13449;49.374;8.584;2023-02-18T00:41:53;101383.47;;;11.96;96.42
24486;BME280;13449;49.374;8.584;2023-02-18T00:44:21;101372.53;;;11.96;96.65
24486;BME280;13449;49.374;8.584;2023-02-18T00:46:51;101383.66;;;11.95;96.79
24486;BME280;13449;49.374;8.584;2023-02-18T00:49:18;101386.41;;;11.95;96.51
24486;BME280;13449;49.374;8.584;2023-02-18T00:51:47;101382.09;;;11.92;96.65
24486;BME280;13449;49.374;8.584;2023-02-18T00:54:16;101389.47;;;11.92;96.78
24486;BME280;13449;49.374;8.584;2023-02-18T00:56:47;101383.31;;;11.90;97.04
24486;BME280;13449;49.374;8.584;2023-02-18T00:59:17;101385.19;;;11.97;96.55
24486;BME280;13449;49.374;8.584;2023-02-18T01:01:45;101385.03;;;11.99;96.40
24486;BME280;13449;49.374;8.584;2023-02-18T01:04:20;101384.16;;;11.98;96.48
24486;BME280;13449;49.374;8.584;2023-02-18T01:06:46;101377.50;;;12.01;96.52
24486;BME280;13449;49.374;8.584;2023-02-18T01:09:13;101391.50;;;11.98;96.69
24486;BME280;13449;49.374;8.584;2023-02-18T01:11:42;101375.47;;;12.03;96.18
24486;BME280;13449;49.374;8.584;2023-02-18T01:14:14;101372.22;;;11.99;96.57
24486;BME280;13449;49.374;8.584;2023-02-18T01:16:43;101374.75;;;12.01;96.48
24486;BME280;13449;49.374;8.584;2023-02-18T01:19:13;101370.00;;;12.03;96.65
24486;BME280;13449;49.374;8.584;2023-02-18T01:21:45;101369.63;;;12.06;96.55
24486;BME280;13449;49.374;8.584;2023-02-18T01:24:14;101375.78;;;12.00;96.83
24486;BME280;13449;49.374;8.584;2023-02-18T01:26:41;101366.91;;;11.98;97.11
24486;BME280;13449;49.374;8.584;2023-02-18T01:29:16;101372.19;;;12.07;96.86
24486;BME280;13449;49.374;8.584;2023-02-18T01:31:42;101369.63;;;12.06;97.04
24486;BME280;13449;49.374;8.584;2023-02-18T01:34:14;101366.19;;;12.04;97.27
24486;BME280;13449;49.374;8.584;2023-02-18T01:36:41;101384.31;;;12.05;97.68
24486;BME280;13449;49.374;8.584;2023-02-18T01:39:08;101377.50;;;12.01;97.81
24486;BME280;13449;49.374;8.584;2023-02-18T01:41:34;101367.56;;;12.00;97.93
24486;BME280;13449;49.374;8.584;2023-02-18T01:44:20;101363.66;;;12.02;97.98
24486;BME280;13449;49.374;8.584;2023-02-18T01:46:50;101361.78;;;12.03;98.24
24486;BME280;13449;49.374;8.584;2023-02-18T01:49:23;101355.63;;;12.01;98.63
24486;BME280;13449;49.374;8.584;2023-02-18T01:52:04;101366.25;;;11.96;98.97
24486;BME280;13449;49.374;8.584;2023-02-18T01:54:37;101368.28;;;12.02;98.97
24486;BME280;13449;49.374;8.584;2023-02-18T01:57:08;101368.63;;;11.99;99.09
24486;BME280;13449;49.374;8.584;2023-02-18T01:59:42;101353.25;;;11.98;99.30
24486;BME280;13449;49.374;8.584;2023-02-18T02:02:14;101357.00;;;11.97;99.54
24486;BME280;13449;49.374;8.584;2023-02-18T02:04:42;101360.59;;;11.97;99.25
24486;BME280;13449;49.374;8.584;2023-02-18T02:07:09;101352.91;;;11.93;99.76
24486;BME280;13449;49.374;8.584;2023-02-18T02:09:37;101351.88;;;11.94;100.00
24486;BME280;13449;49.374;8.584;2023-02-18T02:15:20;101352.03;;;11.92;100.00
24486;BME280;13449;49.374;8.584;2023-02-18T02:27:42;101343.16;;;11.98;99.69
24486;BME280;13449;49.374;8.584;2023-02-18T02:35:36;101331.03;;;12.01;99.06
24486;BME280;13449;49.374;8.584;2023-02-18T02:38:09;101335.13;;;11.97;98.84
24486;BME280;13449;49.374;8.584;2023-02-18T02:43:23;101317.72;;;11.98;98.90
24486;BME280;13449;49.374;8.584;2023-02-18T02:46:01;101307.63;;;11.98;98.24
24486;BME280;13449;49.374;8.584;2023-02-18T02:48:37;101304.41;;;11.95;99.00
24486;BME280;13449;49.374;8.584;2023-02-18T02:51:23;101302.84;;;12.00;98.24
24486;BME280;13449;49.374;8.584;2023-02-18T02:53:53;101300.47;;;11.97;98.40
24486;BME280;13449;49.374;8.584;2023-02-18T02:56:22;101292.94;;;11.99;98.42
24486;BME280;13449;49.374;8.584;2023-02-18T02:59:05;101293.97;;;11.98;98.29
24486;BME280;13449;49.374;8.584;2023-02-18T03:07:26;101298.94;;;11.95;97.99
24486;BME280;13449;49.374;8.584;2023-02-18T03:19:01;101294.63;;;12.00;95.48
24486;BME280;13449;49.374;8.584;2023-02-18T03:21:42;101291.22;;;11.98;95.06
24486;BME280;13449;49.374;8.584;2023-02-18T03:24:17;101300.66;;;11.96;95.04
24486;BME280;13449;49.374;8.584;2023-02-18T03:26:58;101298.94;;;11.95;95.04
24486;BME280;13449;49.374;8.584;2023-02-18T03:29:26;101295.19;;;11.96;94.91
24486;BME280;13449;49.374;8.584;2023-02-18T03:32:00;101290.38;;;11.98;94.82
24486;BME280;13449;49.374;8.584;2023-02-18T03:34:31;101282.34;;;11.96;94.69
24486;BME280;13449;49.374;8.584;2023-02-18T03:37:00;101286.13;;;11.95;94.88
24486;BME280;13449;49.374;8.584;2023-02-18T03:39:29;101288.31;;;12.00;94.92
24486;BME280;13449;49.374;8.584;2023-02-18T03:41:58;101284.06;;;11.97;95.01
24486;BME280;13449;49.374;8.584;2023-02-18T03:44:32;101283.19;;;11.97;94.87
24486;BME280;13449;49.374;8.584;2023-02-18T03:47:03;101282.19;;;11.98;94.95
24486;BME280;13449;49.374;8.584;2023-02-18T03:49:29;101281.16;;;11.99;94.89
24486;BME280;13449;49.374;8.584;2023-02-18T03:51:56;101278.44;;;11.99;94.56
24486;BME280;13449;49.374;8.584;2023-02-18T03:54:22;101287.66;;;11.98;94.73
24486;BME280;13449;49.374;8.584;2023-02-18T03:56:51;101291.41;;;11.97;94.71
24486;BME280;13449;49.374;8.584;2023-02-18T03:59:22;101286.13;;;11.95;94.57
24486;BME280;13449;49.374;8.584;2023-02-18T04:01:49;101285.44;;;11.93;94.82
24486;BME280;13449;49.374;8.584;2023-02-18T04:04:17;101292.78;;;11.93;94.75
24486;BME280;13449;49.374;8.584;2023-02-18T04:06:44;101293.97;;;11.90;95.05
24486;BME280;13449;49.374;8.584;2023-02-18T04:09:18;101284.25;;;11.88;94.21
24486;BME280;13449;49.374;8.584;2023-02-18T04:11:46;101280.69;;;11.87;94.21
24486;BME280;13449;49.374;8.584;2023-02-18T04:14:13;101295.19;;;11.88;93.94
24486;BME280;13449;49.374;8.584;2023-02-18T04:16:43;101293.47;;;11.87;93.92
24486;BME280;13449;49.374;8.584;2023-02-18T04:19:17;101306.28;;;11.86;93.86
24486;BME280;13449;49.374;8.584;2023-02-18T04:21:43;101296.72;;;11.82;94.25
24486;BME280;13449;49.374;8.584;2023-02-18T04:24:09;101300.47;;;11.81;94.12
24486;BME280;13449;49.374;8.584;2023-02-18T04:26:36;101313.13;;;11.82;93.53
24486;BME280;13449;49.374;8.584;2023-02-18T04:29:05;101312.28;;;11.82;93.21
24486;BME280;13449;49.374;8.584;2023-02-18T04:31:35;101309.53;;;11.82;92.79
24486;BME280;13449;49.374;8.584;2023-02-18T04:34:01;101302.56;;;11.79;92.88
24486;BME280;13449;49.374;8.584;2023-02-18T04:36:30;101302.03;;;11.84;92.25
24486;BME280;13449;49.374;8.584;2023-02-18T04:38:59;101296.22;;;11.79;92.41
24486;BME280;13449;49.374;8.584;2023-02-18T04:41:28;101306.81;;;11.82;92.11
24486;BME280;13449;49.374;8.584;2023-02-18T04:44:06;101298.25;;;11.85;91.28
24486;BME280;13449;49.374;8.584;2023-02-18T04:46:35;101297.56;;;11.91;90.76
24486;BME280;13449;49.374;8.584;2023-02-18T04:49:13;101292.47;;;11.88;90.93
24486;BME280;13449;49.374;8.584;2023-02-18T04:51:42;101293.63;;;11.93;90.30
24486;BME280;13449;49.374;8.584;2023-02-18T04:54:09;101293.63;;;11.93;89.76
24486;BME280;13449;49.374;8.584;2023-02-18T04:56:35;101287.31;;;11.93;89.96
24486;BME280;13449;49.374;8.584;2023-02-18T04:59:02;101293.47;;;11.95;90.07
24486;BME280;13449;49.374;8.584;2023-02-18T05:01:29;101295.34;;;11.94;89.73
24486;BME280;13449;49.374;8.584;2023-02-18T05:03:56;101297.22;;;11.94;90.13
24486;BME280;13449;49.374;8.584;2023-02-18T05:06:23;101291.75;;;11.94;90.04
24486;BME280;13449;49.374;8.584;2023-02-18T05:08:49;101288.16;;;11.93;90.12
24486;BME280;13449;49.374;8.584;2023-02-18T05:11:18;101289.38;;;11.91;90.39
24486;BME280;13449;49.374;8.584;2023-02-18T05:13:45;101291.78;;;11.86;90.98
24486;BME280;13449;49.374;8.584;2023-02-18T05:16:11;101293.31;;;11.88;90.76
24486;BME280;13449;49.374;8.584;2023-02-18T05:18:41;101295.53;;;11.85;91.07
24486;BME280;13449;49.374;8.584;2023-02-18T05:21:08;101292.78;;;11.85;90.49
24486;BME280;13449;49.374;8.584;2023-02-18T05:23:35;101287.69;;;11.82;90.64
24486;BME280;13449;49.374;8.584;2023-02-18T05:26:02;101280.84;;;11.78;91.11
24486;BME280;13449;49.374;8.584;2023-02-18T05:28:28;101282.91;;;11.76;91.28
24486;BME280;13449;49.374;8.584;2023-02-18T05:30:55;101280.19;;;11.76;91.36
24486;BME280;13449;49.374;8.584;2023-02-18T05:33:22;101284.13;;;11.73;91.69
24486;BME280;13449;49.374;8.584;2023-02-18T05:35:52;101282.72;;;11.77;91.70
24486;BME280;13449;49.374;8.584;2023-02-18T05:38:23;101277.47;;;11.76;91.62
24486;BME280;13449;49.374;8.584;2023-02-18T05:40:49;101273.00;;;11.67;91.96
24486;BME280;13449;49.374;8.584;2023-02-18T05:43:16;101275.56;;;11.68;91.81
24486;BME280;13449;49.374;8.584;2023-02-18T05:45:43;101270.44;;;11.65;92.22
24486;BME280;13449;49.374;8.584;2023-02-18T05:48:11;101281.03;;;11.60;92.21
24486;BME280;13449;49.374;8.584;2023-02-18T05:50:37;101273.34;;;11.55;92.76
24486;BME280;13449;49.374;8.584;2023-02-18T05:53:13;101281.38;;;11.57;92.92
24486;BME280;13449;49.374;8.584;2023-02-18T05:55:45;101288.88;;;11.55;93.46
24486;BME280;13449;49.374;8.584;2023-02-18T05:58:11;101295.91;;;11.57;93.30
24486;BME280;13449;49.374;8.584;2023-02-18T06:00:44;101281.53;;;11.55;93.54
24486;BME280;13449;49.374;8.584;2023-02-18T06:03:15;101277.28;;;11.45;93.97
24486;BME280;13449;49.374;8.584;2023-02-18T06:05:41;101279.00;;;11.46;94.10
24486;BME280;13449;49.374;8.584;2023-02-18T06:08:11;101284.28;;;11.47;94.02
24486;BME280;13449;49.374;8.584;2023-02-18T06:10:40;101278.50;;;11.42;94.94
24486;BME280;13449;49.374;8.584;2023-02-18T06:13:16;101281.59;;;11.39;95.22
24486;BME280;13449;49.374;8.584;2023-02-18T06:15:50;101273.19;;;11.33;95.63
24486;BME280;13449;49.374;8.584;2023-02-18T06:18:21;101267.44;;;11.28;95.80
24486;BME280;13449;49.374;8.584;2023-02-18T06:20:47;101275.44;;;11.29;96.19
24486;BME280;13449;49.374;8.584;2023-02-18T06:23:14;101267.06;;;11.31;96.25
24486;BME280;13449;49.374;8.584;2023-02-18T06:25:49;101263.13;;;11.33;96.32
24486;BME280;13449;49.374;8.584;2023-02-18T06:28:19;101270.16;;;11.36;96.14
24486;BME280;13449;49.374;8.584;2023-02-18T06:30:48;101262.47;;;11.31;96.80
24486;BME280;13449;49.374;8.584;2023-02-18T06:33:15;101267.06;;;11.31;97.27
24486;BME280;13449;49.374;8.584;2023-02-18T06:35:55;101266.06;;;11.32;96.92
24486;BME280;13449;49.374;8.584;2023-02-18T06:38:25;101265.19;;;11.31;97.13
24486;BME280;13449;49.374;8.584;2023-02-18T06:40:53;101261.78;;;11.29;97.31
24486;BME280;13449;49.374;8.584;2023-02-18T06:43:22;101259.38;;;11.26;97.74
24486;BME280;13449;49.374;8.584;2023-02-18T06:45:54;101249.31;;;11.27;97.74
24486;BME280;13449;49.374;8.584;2023-02-18T06:48:20;101245.75;;;11.26;98.23
24486;BME280;13449;49.374;8.584;2023-02-18T06:50:50;101246.25;;;11.30;98.09
24486;BME280;13449;49.374;8.584;2023-02-18T06:53:19;101241.50;;;11.32;98.38
24486;BME280;13449;49.374;8.584;2023-02-18T06:55:49;101241.81;;;11.29;98.22
24486;BME280;13449;49.374;8.584;2023-02-18T06:58:18;101235.16;;;11.31;98.63
24486;BME280;13449;49.374;8.584;2023-02-18T07:00:45;101224.91;;;11.33;98.32
24486;BME280;13449;49.374;8.584;2023-02-18T07:03:13;101233.97;;;11.34;98.86
24486;BME280;13449;49.374;8.584;2023-02-18T07:05:44;101233.81;;;11.35;99.00
24486;BME280;13449;49.374;8.584;2023-02-18T07:08:12;101233.81;;;11.35;98.51
24486;BME280;13449;49.374;8.584;2023-02-18T07:10:40;101228.34;;;11.35;98.88
24486;BME280;13449;49.374;8.584;2023-02-18T07:13:12;101234.66;;;11.36;98.94
24486;BME280;13449;49.374;8.584;2023-02-18T07:15:42;101229.00;;;11.37;98.71
24486;BME280;13449;49.374;8.584;2023-02-18T07:18:11;101236.84;;;11.40;98.66
24486;BME280;13449;49.374;8.584;2023-02-18T07:20:40;101237.19;;;11.37;99.06
24486;BME280;13449;49.374;8.584;2023-02-18T07:23:07;101234.47;;;11.37;99.03
24486;BME280;13449;49.374;8.584;2023-02-18T07:25:39;101231.75;;;11.37;98.74
24486;BME280;13449;49.374;8.584;2023-02-18T07:28:06;101228.00;;;11.38;98.62
24486;BME280;13449;49.374;8.584;2023-02-18T07:30:35;101226.97;;;11.39;98.74
24486;BME280;13449;49.374;8.584;2023-02-18T07:33:10;101221.31;;;11.41;99.00
24486;BME280;13449;49.374;8.584;2023-02-18T07:35:37;101229.84;;;11.46;98.76
24486;BME280;13449;49.374;8.584;2023-02-18T07:38:12;101221.16;;;11.50;98.26
24486;BME280;13449;49.374;8.584;2023-02-18T07:40:38;101222.50;;;11.54;97.90
24486;BME280;13449;49.374;8.584;2023-02-18T07:43:05;101226.03;;;11.63;97.63
24486;BME280;13449;49.374;8.584;2023-02-18T07:45:40;101216.84;;;11.64;97.58
24486;BME280;13449;49.374;8.584;2023-02-18T07:48:06;101205.38;;;11.69;97.30
24486;BME280;13449;49.374;8.584;2023-02-18T07:50:33;101205.91;;;11.72;96.90
24486;BME280;13449;49.374;8.584;2023-02-18T07:53:01;101200.94;;;11.76;96.26
24486;BME280;13449;49.374;8.584;2023-02-18T07:55:41;101208.44;;;11.82;96.48
24486;BME280;13449;49.374;8.584;2023-02-18T07:58:19;101207.41;;;11.83;96.18
24486;BME280;13449;49.374;8.584;2023-02-18T08:00:51;101203.31;;;11.87;95.76
24486;BME280;13449;49.374;8.584;2023-02-18T08:03:29;101201.22;;;11.89;96.17
24486;BME280;13449;49.374;8.584;2023-02-18T08:05:57;101206.66;;;11.97;95.32
24486;BME280;13449;49.374;8.584;2023-02-18T08:08:29;101209.53;;;12.03;94.81
24486;BME280;13449;49.374;8.584;2023-02-18T08:10:58;101210.72;;;12.09;95.18
24486;BME280;13449;49.374;8.584;2023-02-18T08:13:43;101210.00;;;12.15;93.40
24486;BME280;13449;49.374;8.584;2023-02-18T08:16:12;101213.78;;;12.14;93.90
24486;BME280;13449;49.374;8.584;2023-02-18T08:18:40;101213.75;;;12.22;92.79
24486;BME280;13449;49.374;8.584;2023-02-18T08:21:07;101209.09;;;12.23;92.81
24486;BME280;13449;49.374;8.584;2023-02-18T08:23:39;101199.50;;;12.27;91.93
24486;BME280;13449;49.374;8.584;2023-02-18T08:26:13;101197.28;;;12.30;91.39
24486;BME280;13449;49.374;8.584;2023-02-18T08:28:47;101201.06;;;12.29;91.21
24486;BME280;13449;49.374;8.584;2023-02-18T08:31:22;101208.03;;;12.32;90.88
24486;BME280;13449;49.374;8.584;2023-02-18T08:33:58;101202.19;;;12.35;90.40
24486;BME280;13449;49.374;8.584;2023-02-18T08:36:29;101194.84;;;12.35;90.33
24486;BME280;13449;49.374;8.584;2023-02-18T08:38:56;101197.53;;;12.43;89.61
24486;BME280;13449;49.374;8.584;2023-02-18T08:41:23;101199.38;;;12.51;89.16
24486;BME280;13449;49.374;8.584;2023-02-18T08:43:50;101198.84;;;12.55;88.54
24486;BME280;13449;49.374;8.584;2023-02-18T08:46:22;101199.13;;;12.60;88.44
24486;BME280;13449;49.374;8.584;2023-02-18T08:49:02;101191.59;;;12.63;88.34
24486;BME280;13449;49.374;8.584;2023-02-18T08:51:28;101200.09;;;12.68;87.38
24486;BME280;13449;49.374;8.584;2023-02-18T08:53:58;101193.06;;;12.73;87.11
24486;BME280;13449;49.374;8.584;2023-02-18T08:56:27;101183.34;;;12.71;87.57
24486;BME280;13449;49.374;8.584;2023-02-18T08:58:56;101189.63;;;12.71;87.57
24486;BME280;13449;49.374;8.584;2023-02-18T09:01:24;101184.00;;;12.73;87.19
24486;BME280;13449;49.374;8.584;2023-02-18T09:03:51;101185.03;;;12.72;87.27
24486;BME280;13449;49.374;8.584;2023-02-18T09:06:17;101172.19;;;12.72;87.37
24486;BME280;13449;49.374;8.584;2023-02-18T09:08:44;101171.16;;;12.73;86.99
24486;BME280;13449;49.374;8.584;2023-02-18T09:11:11;101173.53;;;12.76;85.87
24486;BME280;13449;49.374;8.584;2023-02-18T09:13:38;101182.22;;;12.80;85.55
24486;BME280;13449;49.374;8.584;2023-02-18T09:16:07;101185.66;;;12.82;85.72
24486;BME280;13449;49.374;8.584;2023-02-18T09:18:35;101176.03;;;12.86;85.10
24486;BME280;13449;49.374;8.584;2023-02-18T09:21:03;101190.84;;;12.91;84.40
24486;BME280;13449;49.374;8.584;2023-02-18T09:23:32;101190.84;;;12.91;84.25
24486;BME280;13449;49.374;8.584;2023-02-18T09:25:59;101192.38;;;12.94;83.42
24486;BME280;13449;49.374;8.584;2023-02-18T09:28:26;101202.28;;;12.95;83.96
24486;BME280;13449;49.374;8.584;2023-02-18T09:30:54;101206.00;;;13.02;82.02
24486;BME280;13449;49.374;8.584;2023-02-18T09:33:21;101204.09;;;13.02;82.46
24486;BME280;13449;49.374;8.584;2023-02-18T09:35:48;101192.50;;;13.00;82.78
24486;BME280;13449;49.374;8.584;2023-02-18T09:38:16;101198.63;;;13.02;82.00
24486;BME280;13449;49.374;8.584;2023-02-18T09:40:46;101203.25;;;13.02;82.82
24486;BME280;13449;49.374;8.584;2023-02-18T09:43:35;101201.00;;;13.05;81.25
24486;BME280;13449;49.374;8.584;2023-02-18T09:46:19;101194.44;;;13.15;80.47
24486;BME280;13449;49.374;8.584;2023-02-18T09:48:48;101189.63;;;13.17;80.99
24486;BME280;13449;49.374;8.584;2023-02-18T09:51:18;101188.03;;;13.22;80.76
24486;BME280;13449;49.374;8.584;2023-02-18T09:53:46;101191.91;;;13.28;80.30
24486;BME280;13449;49.374;8.584;2023-02-18T09:56:17;101188.31;;;13.27;80.54
24486;BME280;13449;49.374;8.584;2023-02-18T09:58:46;101187.38;;;13.35;80.22
24486;BME280;13449;49.374;8.584;2023-02-18T10:01:30;101191.75;;;13.44;79.07
24486;BME280;13449;49.374;8.584;2023-02-18T10:04:01;101196.00;;;13.46;79.01
24486;BME280;13449;49.374;8.584;2023-02-18T10:06:33;101188.84;;;13.45;78.74
24486;BME280;13449;49.374;8.584;2023-02-18T10:09:04;101185.72;;;13.48;78.48
24486;BME280;13449;49.374;8.584;2023-02-18T10:11:39;101202.81;;;13.50;77.02
24486;BME280;13449;49.374;8.584;2023-02-18T10:14:13;101205.28;;;13.45;77.40
24486;BME280;13449;49.374;8.584;2023-02-18T10:16:42;101188.38;;;13.42;77.85
24486;BME280;13449;49.374;8.584;2023-02-18T10:19:18;101194.31;;;13.45;77.69
24486;BME280;13449;49.374;8.584;2023-02-18T10:21:46;101187.13;;;13.44;77.39
24486;BME280;13449;49.374;8.584;2023-02-18T10:24:25;101194.88;;;13.41;78.25
24486;BME280;13449;49.374;8.584;2023-02-18T10:26:52;101181.19;;;13.41;77.55
24486;BME280;13449;49.374;8.584;2023-02-18T10:29:22;101186.66;;;13.41;77.34
24486;BME280;13449;49.374;8.584;2023-02-18T10:34:58;101187.22;;;13.36;77.33
24486;BME280;13449;49.374;8.584;2023-02-18T10:37:51;101191.28;;;13.40;76.29
24486;BME280;13449;49.374;8.584;2023-02-18T10:46:31;101198.19;;;13.51;74.23
24486;BME280;13449;49.374;8.584;2023-02-18T10:49:33;101193.00;;;13.56;74.41
24486;BME280;13449;49.374;8.584;2023-02-18T10:52:13;101201.59;;;13.53;73.95
24486;BME280;13449;49.374;8.584;2023-02-18T10:57:22;101190.34;;;13.48;74.47
24486;BME280;13449;49.374;8.584;2023-02-18T11:02:42;101210.94;;;13.44;73.30
24486;BME280;13449;49.374;8.584;2023-02-18T11:05:28;101201.88;;;13.43;73.16
24486;BME280;13449;49.374;8.584;2023-02-18T11:08:10;101193.16;;;13.40;74.05
24486;BME280;13449;49.374;8.584;2023-02-18T11:10:51;101211.59;;;13.46;71.85
24486;BME280;13449;49.374;8.584;2023-02-18T11:13:25;101194.97;;;13.47;72.65
24486;BME280;13449;49.374;8.584;2023-02-18T11:16:05;101210.84;;;13.52;71.36
24486;BME280;13449;49.374;8.584;2023-02-18T11:18:42;101203.13;;;13.55;72.30
24486;BME280;13449;49.374;8.584;2023-02-18T11:21:27;101191.97;;;13.57;72.98
24486;BME280;13449;49.374;8.584;2023-02-18T11:23:55;101192.78;;;13.57;72.50
24486;BME280;13449;49.374;8.584;2023-02-18T11:26:30;101198.09;;;13.59;73.53
24486;BME280;13449;49.374;8.584;2023-02-18T11:29:02;101189.03;;;13.59;74.10
24486;BME280;13449;49.374;8.584;2023-02-18T11:31:42;101181.38;;;13.54;74.38
24486;BME280;13449;49.374;8.584;2023-02-18T11:34:18;101187.53;;;13.56;73.95
24486;BME280;13449;49.374;8.584;2023-02-18T11:36:49;101186.59;;;13.64;74.65
24486;BME280;13449;49.374;8.584;2023-02-18T11:44:41;101186.75;;;13.62;73.73
24486;BME280;13449;49.374;8.584;2023-02-18T11:47:27;101184.97;;;13.69;73.98
24486;BME280;13449;49.374;8.584;2023-02-18T11:52:39;101180.03;;;13.65;73.47
24486;BME280;13449;49.374;8.584;2023-02-18T11:55:14;101153.31;;;13.67;74.30
24486;BME280;13449;49.374;8.584;2023-02-18T11:57:51;101168.72;;;13.68;73.46
24486;BME280;13449;49.374;8.584;2023-02-18T12:00:45;101162.19;;;13.69;73.46
24486;BME280;13449;49.374;8.584;2023-02-18T12:06:27;101158.22;;;13.86;72.12
24486;BME280;13449;49.374;8.584;2023-02-18T12:09:00;101161.72;;;13.94;70.80
24486;BME280;13449;49.374;8.584;2023-02-18T12:11:36;101143.63;;;14.00;72.08
24486;BME280;13449;49.374;8.584;2023-02-18T12:14:13;101146.19;;;14.01;72.17
24486;BME280;13449;49.374;8.584;2023-02-18T12:19:47;101149.00;;;14.08;70.42
24486;BME280;13449;49.374;8.584;2023-02-18T12:35:08;101130.59;;;14.02;69.25
24486;BME280;13449;49.374;8.584;2023-02-18T12:37:48;101127.81;;;14.17;68.65
24486;BME280;13449;49.374;8.584;2023-02-18T12:40:45;101125.69;;;14.19;68.02
24486;BME280;13449;49.374;8.584;2023-02-18T12:46:51;101143.34;;;14.45;67.00
24486;BME280;13449;49.374;8.584;2023-02-18T12:52:10;101137.03;;;14.30;66.04
24486;BME280;13449;49.374;8.584;2023-02-18T13:01:04;101118.06;;;14.50;67.48
24486;BME280;13449;49.374;8.584;2023-02-18T13:11:42;101119.06;;;14.70;65.54
24486;BME280;13449;49.374;8.584;2023-02-18T13:14:20;101121.81;;;14.70;65.19
24486;BME280;13449;49.374;8.584;2023-02-18T13:16:50;101115.75;;;14.75;65.52
24486;BME280;13449;49.374;8.584;2023-02-18T13:19:24;101112.41;;;14.79;64.89
24486;BME280;13449;49.374;8.584;2023-02-18T13:22:03;101105.44;;;14.77;64.58
24486;BME280;13449;49.374;8.584;2023-02-18T13:24:34;101103.78;;;14.82;65.63
24486;BME280;13449;49.374;8.584;2023-02-18T13:27:13;101113.91;;;14.82;64.64
24486;BME280;13449;49.374;8.584;2023-02-18T13:32:29;101098.81;;;14.71;65.20
24486;BME280;13449;49.374;8.584;2023-02-18T13:37:33;101086.59;;;14.74;66.14
24486;BME280;13449;49.374;8.584;2023-02-18T13:40:02;101086.50;;;14.61;65.63
24486;BME280;13449;49.374;8.584;2023-02-18T13:55:53;101065.22;;;14.27;66.25
24486;BME280;13449;49.374;8.584;2023-02-18T14:01:02;101063.13;;;14.08;66.87
24486;BME280;13449;49.374;8.584;2023-02-18T14:06:12;101057.59;;;14.01;67.22
24486;BME280;13449;49.374;8.584;2023-02-18T14:08:41;101055.41;;;13.96;67.24
24486;BME280;13449;49.374;8.584;2023-02-18T14:16:13;101054.44;;;13.83;67.90
24486;BME280;13449;49.374;8.584;2023-02-18T14:23:53;101054.25;;;13.70;67.78
24486;BME280;13449;49.374;8.584;2023-02-18T14:26:29;101054.81;;;13.65;68.31
24486;BME280;13449;49.374;8.584;2023-02-18T14:29:18;101065.59;;;13.67;68.57
24486;BME280;13449;49.374;8.584;2023-02-18T14:31:51;101076.88;;;13.57;67.32
24486;BME280;13449;49.374;8.584;2023-02-18T14:37:14;101076.78;;;13.50;67.07
24486;BME280;13449;49.374;8.584;2023-02-18T14:50:53;101069.41;;;13.36;68.18
24486;BME280;13449;49.374;8.584;2023-02-18T14:53:23;101058.16;;;13.31;68.41
24486;BME280;13449;49.374;8.584;2023-02-18T14:56:01;101061.69;;;13.25;68.51
24486;BME280;13449;49.374;8.584;2023-02-18T14:58:33;101064.59;;;13.24;68.63
24486;BME280;13449;49.374;8.584;2023-02-18T15:01:31;101060.34;;;13.21;68.91
24486;BME280;13449;49.374;8.584;2023-02-18T15:03:59;101069.59;;;13.20;68.09
24486;BME280;13449;49.374;8.584;2023-02-18T15:06:36;101071.69;;;13.18;68.26
24486;BME280;13449;49.374;8.584;2023-02-18T15:09:30;101090.00;;;13.18;67.81
24486;BME280;13449;49.374;8.584;2023-02-18T15:14:29;101066.00;;;13.20;68.60
24486;BME280;13449;49.374;8.584;2023-02-18T15:16:57;101056.28;;;13.17;68.46
24486;BME280;13449;49.374;8.584;2023-02-18T15:19:27;101063.00;;;13.15;68.60
24486;BME280;13449;49.374;8.584;2023-02-18T15:21:56;101077.09;;;13.12;68.27
24486;BME280;13449;49.374;8.584;2023-02-18T15:26:56;101070.97;;;13.01;68.78
24486;BME280;13449;49.374;8.584;2023-02-18T15:29:27;101067.59;;;12.99;68.75
24486;BME280;13449;49.374;8.584;2023-02-18T15:31:55;101081.19;;;12.93;69.37
24486;BME280;13449;49.374;8.584;2023-02-18T15:37:01;101072.56;;;12.81;69.77
24486;BME280;13449;49.374;8.584;2023-02-18T15:39:29;101082.84;;;12.79;69.33
24486;BME280;13449;49.374;8.584;2023-02-18T15:42:00;101071.78;;;12.73;69.86
24486;BME280;13449;49.374;8.584;2023-02-18T15:44:31;101069.44;;;12.70;70.17
24486;BME280;13449;49.374;8.584;2023-02-18T15:47:04;101081.97;;;12.64;70.17